Flight Track Log - Related Links

Times and Time Zones

All times are in EDT time to prevent confusion due to time zone crossing. See the BJS542 flight status page for this flight to view local times or setup timezone preferences in your user account.

Time Position Orientation Groundspeed Altitude Reporting Facility
EDT Latitude Longitude Course Direction KTS MPH feet Rate Location/Type
Wed 07:09:12 AM 33.9167 -84.2833 360° North 188 216 3,100  Level Atlanta TRACON
Wed 07:10:12 AM 33.9667 -84.2833 360° North 225 259 6,800 3,952 Climbing Atlanta TRACON
Wed 07:11:18 AM 33.9667 -84.3833 270° West 285 328 11,400 3,368 Climbing Atlanta TRACON
Wed 07:12:06 AM 33.9500 -84.4667 256° West 338 389 13,200 1,322 Climbing Atlanta TRACON
Wed 07:13:16 AM 33.8519 -84.5017 197° South 361 415 14,000 2,463 Climbing Atlanta Center
Wed 07:15:16 AM 33.6536 -84.4931 178° South 353 406 21,000 3,100 Climbing Atlanta Center
Wed 07:16:16 AM 33.5575 -84.4900 178° South 369 425 23,300 1,950 Climbing Atlanta Center
Wed 07:17:16 AM 33.4469 -84.4844 178° South 388 447 24,900 2,450 Climbing Atlanta Center
Wed 07:18:16 AM 33.3300 -84.4789 178° South 394 453 28,200 2,650 Climbing Atlanta Center
Wed 07:19:16 AM 33.2153 -84.4733 178° South 394 453 30,200 1,900 Climbing Atlanta Center
Wed 07:20:16 AM 33.0964 -84.4703 179° South 421 484 32,000 1,850 Climbing Atlanta Center
Wed 07:21:16 AM 32.9753 -84.4647 178° South 434 499 33,900 2,250 Climbing Atlanta Center
Wed 07:22:16 AM 32.8522 -84.4617 179° South 439 505 36,500 2,800 Climbing Atlanta Center
Wed 07:23:16 AM 32.7436 -84.4586 179° South 424 488 39,500 2,050 Climbing Atlanta Center
Wed 07:24:16 AM 32.6372 -84.4533 178° South 399 459 40,600 750 Climbing Atlanta Center
Wed 07:25:16 AM 32.5244 -84.4503 179° South 399 459 41,000 346 Climbing Atlanta Center
Wed 07:27:27 AM 32.2697 -84.4381 178° South 414 476 41,700 625 Climbing Jacksonville Center
Wed 07:28:28 AM 32.1592 -84.4361 179° South 414 476 43,000 645 Climbing Jacksonville Center
Wed 07:29:28 AM 32.0403 -84.4342 179° South 414 476 43,000  Level Jacksonville Center
Wed 07:30:27 AM 31.9233 -84.4272 177° South 419 482 43,000  Level Jacksonville Center
Wed 07:31:28 AM 31.8025 -84.4228 178° South 424 488 43,000  Level Jacksonville Center
Wed 07:32:28 AM 31.6836 -84.4111 175° South 424 488 43,000  Level Jacksonville Center
Wed 07:33:28 AM 31.5819 -84.3533 154° Southeast 441 507 43,000  Level Jacksonville Center
Wed 07:34:27 AM 31.4761 -84.2836 151° Southeast 441 507 43,000  Level Jacksonville Center
Wed 07:35:28 AM 31.3706 -84.2114 150° Southeast 436 502 43,000  Level Jacksonville Center
Wed 07:36:28 AM 31.2606 -84.1394 151° Southeast 442 509 43,000  Level Jacksonville Center
Wed 07:37:27 AM 31.1528 -84.0675 150° Southeast 447 514 43,000 -450 Level Jacksonville Center
Wed 07:38:28 AM 31.0428 -83.9933 150° Southeast 447 514 42,100 -1,240 Descending Jacksonville Center
Wed 07:39:28 AM 30.9367 -83.9219 150° Southeast 448 516 40,500 -1,750 Descending Jacksonville Center
Wed 07:40:28 AM 30.8328 -83.8531 150° Southeast 442 509 38,600 -1,750 Descending Jacksonville Center
Wed 07:41:28 AM 30.7331 -83.7892 151° Southeast 426 490 37,000 -800 Descending Jacksonville Center
Wed 07:42:28 AM 30.6314 -83.7206 150° Southeast 418 481 37,000  Level Jacksonville Center
Wed 07:43:28 AM 30.5189 -83.6450 150° Southeast 418 481 37,000  Level Jacksonville Center
Wed 07:44:28 AM 30.4150 -83.5767 150° Southeast 413 475 37,000  Level Jacksonville Center
Wed 07:45:28 AM 30.3089 -83.5061 150° Southeast 418 481 37,000 -50 Level Jacksonville Center
Wed 07:46:28 AM 30.2028 -83.4381 151° Southeast 423 487 36,900 -1,000 Descending Jacksonville Center
Wed 07:47:28 AM 30.0944 -83.3681 151° Southeast 434 499 35,000 -1,900 Descending Jacksonville Center
Wed 07:48:28 AM 29.9797 -83.2978 152° Southeast 446 513 33,100 -2,000 Descending Jacksonville Center
Wed 07:49:28 AM 29.8653 -83.2231 150° Southeast 462 532 31,000 -2,000 Descending Jacksonville Center
Wed 07:50:28 AM 29.7528 -83.1508 151° Southeast 456 525 29,100 -1,850 Descending Jacksonville Center
Wed 07:51:28 AM 29.6442 -83.0814 151° Southeast 451 519 27,300 -1,850 Descending Jacksonville Center
Wed 07:52:28 AM 29.5400 -83.0119 150° Southeast 431 496 25,400 -1,650 Descending Jacksonville Center
Wed 07:53:28 AM 29.4481 -82.9522 151° Southeast 426 490 24,000 -750 Descending Jacksonville Center
Wed 07:54:28 AM 29.3522 -82.8903 151° Southeast 413 475 23,900 -250 Descending Jacksonville Center
Wed 07:55:28 AM 29.2581 -82.8306 151° Southeast 399 459 23,500 -1,350 Descending Jacksonville Center
Wed 07:56:28 AM 29.1578 -82.7642 150° Southeast 399 459 21,200 -2,200 Descending Jacksonville Center
Wed 07:57:28 AM 29.0639 -82.7025 150° Southeast 399 459 19,100 -1,950 Descending Jacksonville Center
Wed 07:58:28 AM 28.9783 -82.6458 150° Southeast 383 441 17,300 -1,850 Descending Jacksonville Center
Wed 07:59:28 AM 28.8947 -82.5939 151° Southeast 364 419 15,400 -1,800 Descending Jacksonville Center
Wed 08:00:28 AM 28.8153 -82.5419 150° Southeast 344 396 13,700 -885 Descending Jacksonville Center
Wed 08:02:31 AM 28.6333 -82.4333 152° Southeast 335 386 12,700 -912 Descending Tampa TRACON
Wed 08:03:19 AM 28.5667 -82.4000 156° South 314 361 11,100 -2,000 Descending Tampa TRACON
Wed 08:04:19 AM 28.5000 -82.3500 147° Southeast 296 341 9,100 -2,000 Descending Tampa TRACON
Wed 08:05:19 AM 28.4167 -82.3167 161° South 285 328 7,100 -2,000 Descending Tampa TRACON
Wed 08:06:19 AM 28.3500 -82.3000 168° South 273 314 5,100 -1,600 Descending Tampa TRACON
Wed 08:07:19 AM 28.2833 -82.2667 156° South 250 288 3,900 -1,000 Descending Tampa TRACON
Wed 08:08:19 AM 28.2333 -82.2333 150° Southeast 234 269 3,100 -400 Descending Tampa TRACON
Wed 08:09:19 AM 28.1667 -82.2000 156° South 249 287 3,100 -347 Level Tampa TRACON
Wed 08:10:20 AM 28.1000 -82.1833 168° South 237 273 2,400 -645 Descending Tampa TRACON
Wed 08:11:20 AM 28.0500 -82.1500 150° Southeast 211 243 1,800 -600 Descending Tampa TRACON

Login

Don't have an account? Register now (free) for customized features, flight alerts, and more!